Time;durP1;ratioP1;P1;durP2;ratioP2;P2;SDS_P1;SDS_P2;PMS_P1;PMS_P2;Temp;Humidity;BMP_temperature;BMP_pressure;BME280_temperature;BME280_humidity;BME280_pressure;Samples;Min_cycle;Max_cycle;Signal;HPM_P1;HPM_P2
2022/12/01 00:01:26;;;;;;;;;;;;;;;3.80;100.00;101075.13;5589464;31;34188;-68
2022/12/01 00:04:36;;;;;;;;;;;;;;;3.74;100.00;101080.81;5576518;31;34121;-68
2022/12/01 00:07:44;;;;;;;;;;;;;;;3.55;100.00;101081.25;5589251;31;34123;-68
2022/12/01 00:10:50;;;;;;;;;;;;;;;3.34;100.00;101085.38;5589371;31;34883;-68
2022/12/01 00:13:57;;;;;;;;;;;;;;;3.15;100.00;101090.97;5589317;31;34634;-67
2022/12/01 00:17:04;;;;;;;;;;;;;;;2.98;100.00;101094.75;5589271;31;34792;-68
2022/12/01 00:20:10;;;;;;;;;;;;;;;2.93;100.00;101096.00;5589165;31;34544;-67
2022/12/01 00:23:17;;;;;;;;;;;;;;;2.83;100.00;101105.41;5589651;31;34843;-68
2022/12/01 00:26:26;;;;;;;;;;;;;;;2.73;100.00;101109.56;5578523;31;34747;-67
2022/12/01 00:29:35;;;;;;;;;;;;;;;2.62;100.00;101102.38;5577585;31;33344;-68
2022/12/01 00:32:42;;;;;;;;;;;;;;;2.52;100.00;101104.75;5577632;31;34211;-67
2022/12/01 00:35:50;;;;;;;;;;;;;;;2.44;100.00;101100.97;5591493;31;34190;-67
2022/12/01 00:38:55;;;;;;;;;;;;;;;2.40;100.00;101105.56;5591419;31;34632;-67
2022/12/01 00:42:02;;;;;;;;;;;;;;;2.28;100.00;101102.88;5591706;31;34169;-67
2022/12/01 00:45:11;;;;;;;;;;;;;;;2.24;100.00;101107.47;5591331;31;34225;-67
2022/12/01 00:48:18;;;;;;;;;;;;;;;2.13;100.00;101108.13;5591381;31;34380;-68
2022/12/01 00:51:24;;;;;;;;;;;;;;;2.01;100.00;101102.84;5591348;31;34669;-67
2022/12/01 00:54:31;;;;;;;;;;;;;;;1.95;100.00;101111.06;5591125;31;34654;-67
2022/12/01 00:57:37;;;;;;;;;;;;;;;1.87;100.00;101111.56;5591333;31;34259;-67
2022/12/01 01:00:44;;;;;;;;;;;;;;;1.81;100.00;101117.16;5591325;31;34883;-67
2022/12/01 01:03:58;;;;;;;;;;;;;;;1.75;100.00;101114.91;5591218;31;34148;-67
2022/12/01 01:07:08;;;;;;;;;;;;;;;1.70;100.00;101111.72;5577655;31;34856;-68
2022/12/01 01:10:16;;;;;;;;;;;;;;;1.62;100.00;101111.34;5577753;31;34169;-67
2022/12/01 01:13:23;;;;;;;;;;;;;;;1.61;100.00;101113.12;5591032;31;34500;-67
2022/12/01 01:16:33;;;;;;;;;;;;;;;1.56;100.00;101107.34;5591153;31;34179;-67
2022/12/01 01:19:40;;;;;;;;;;;;;;;1.50;100.00;101112.94;5591083;31;34764;-67
2022/12/01 01:22:47;;;;;;;;;;;;;;;1.48;100.00;101106.12;5591078;31;35489;-68
2022/12/01 01:25:59;;;;;;;;;;;;;;;1.47;100.00;101107.91;5590958;31;34966;-67
2022/12/01 01:29:06;;;;;;;;;;;;;;;1.45;100.00;101096.69;5591008;31;34130;-67
2022/12/01 01:32:16;;;;;;;;;;;;;;;1.47;100.00;101107.03;5591008;31;34630;-67
2022/12/01 01:35:22;;;;;;;;;;;;;;;1.41;100.00;101099.56;5590501;31;34215;-67
2022/12/01 01:38:29;;;;;;;;;;;;;;;1.34;100.00;101101.72;5591035;31;34408;-67
2022/12/01 01:41:37;;;;;;;;;;;;;;;1.39;100.00;101107.53;5591080;31;33632;-67
2022/12/01 01:44:47;;;;;;;;;;;;;;;1.29;100.00;101101.16;5577752;31;34221;-66
2022/12/01 01:47:55;;;;;;;;;;;;;;;1.22;100.00;101099.81;5590795;31;34291;-68
2022/12/01 01:51:03;;;;;;;;;;;;;;;1.17;100.00;101102.72;5577641;31;34125;-66
2022/12/01 01:54:14;;;;;;;;;;;;;;;1.16;100.00;101110.66;5576738;31;34615;-67
2022/12/01 01:57:22;;;;;;;;;;;;;;;1.08;100.00;101108.47;5590752;31;34549;-67
2022/12/01 02:00:28;;;;;;;;;;;;;;;1.02;100.00;101107.97;5590707;31;34770;-67
2022/12/01 02:03:36;;;;;;;;;;;;;;;1.03;100.00;101102.69;5577441;31;34214;-67
2022/12/01 02:06:42;;;;;;;;;;;;;;;0.97;100.00;101097.81;5590839;31;34317;-66
2022/12/01 02:09:49;;;;;;;;;;;;;;;0.89;100.00;101097.41;5591056;31;34250;-67
2022/12/01 02:13:05;;;;;;;;;;;;;;;0.90;100.00;101104.31;5590611;31;34254;-67
2022/12/01 02:16:25;;;;;;;;;;;;;;;0.90;100.00;101093.03;5576804;31;33938;-67
2022/12/01 02:19:45;;;;;;;;;;;;;;;0.82;100.00;101085.66;5577258;31;34240;-67
2022/12/01 02:22:53;;;;;;;;;;;;;;;0.76;100.00;101092.06;5590530;31;34819;-67
2022/12/01 02:26:03;;;;;;;;;;;;;;;0.69;100.00;101095.09;5590433;31;34213;-67
2022/12/01 02:29:16;;;;;;;;;;;;;;;0.61;100.00;101095.56;5590523;31;34180;-67
2022/12/01 02:32:37;;;;;;;;;;;;;;;0.58;100.00;101100.94;5590398;31;34827;-66
2022/12/01 02:35:49;;;;;;;;;;;;;;;0.51;100.00;101097.00;5590216;31;34953;-67
2022/12/01 02:39:16;;;;;;;;;;;;;;;0.42;100.00;101098.34;5590365;31;34102;-67
2022/12/01 02:42:49;;;;;;;;;;;;;;;0.37;100.00;101097.78;5590600;31;34210;-67
2022/12/01 02:46:17;;;;;;;;;;;;;;;0.39;100.00;101098.50;5590299;31;34610;-66
2022/12/01 02:49:29;;;;;;;;;;;;;;;0.36;100.00;101098.69;5589684;31;34828;-66
2022/12/01 02:52:39;;;;;;;;;;;;;;;0.38;100.00;101099.47;5590354;31;34607;-67
2022/12/01 02:55:49;;;;;;;;;;;;;;;0.38;100.00;101093.41;5590127;31;35517;-66
2022/12/01 02:58:58;;;;;;;;;;;;;;;0.38;100.00;101090.78;5576517;31;35603;-66
2022/12/01 03:02:17;;;;;;;;;;;;;;;0.43;100.00;101083.53;5590145;31;34685;-67
2022/12/01 03:05:38;;;;;;;;;;;;;;;0.38;100.00;101081.19;5590214;31;34869;-66
2022/12/01 03:09:00;;;;;;;;;;;;;;;0.45;100.00;101081.66;5589890;31;34814;-67
2022/12/01 03:12:22;;;;;;;;;;;;;;;0.39;100.00;101082.00;5589994;31;34700;-67
2022/12/01 03:15:31;;;;;;;;;;;;;;;0.35;100.00;101080.50;5589877;31;34080;-67
2022/12/01 03:18:41;;;;;;;;;;;;;;;0.37;100.00;101086.50;5590027;31;34372;-67
2022/12/01 03:21:55;;;;;;;;;;;;;;;0.39;100.00;101088.06;5590072;31;34796;-67
2022/12/01 03:25:02;;;;;;;;;;;;;;;0.36;100.00;101095.25;5575628;31;34568;-67
2022/12/01 03:28:11;;;;;;;;;;;;;;;0.35;100.00;101089.19;5590006;31;34446;-67
2022/12/01 03:31:27;;;;;;;;;;;;;;;0.38;100.00;101081.19;5589855;31;34974;-67
2022/12/01 03:34:39;;;;;;;;;;;;;;;0.39;100.00;101079.41;5589701;31;34400;-67
2022/12/01 03:37:52;;;;;;;;;;;;;;;0.36;100.00;101080.41;5589809;31;34741;-66
2022/12/01 03:41:05;;;;;;;;;;;;;;;0.33;100.00;101074.53;5589823;31;34059;-66
2022/12/01 03:44:14;;;;;;;;;;;;;;;0.28;100.00;101080.03;5589849;31;34128;-66
2022/12/01 03:47:22;;;;;;;;;;;;;;;0.29;100.00;101068.63;5589665;31;34224;-67
2022/12/01 03:50:31;;;;;;;;;;;;;;;0.26;100.00;101071.41;5589743;31;34287;-67
2022/12/01 03:53:52;;;;;;;;;;;;;;;0.27;100.00;101073.12;5589711;31;34354;-67
2022/12/01 03:57:02;;;;;;;;;;;;;;;0.36;100.00;101069.12;5575192;31;35040;-67
2022/12/01 04:00:10;;;;;;;;;;;;;;;0.40;100.00;101075.88;5589018;31;34215;-66
2022/12/01 04:03:18;;;;;;;;;;;;;;;0.48;100.00;101084.13;5589444;31;34204;-67
2022/12/01 04:06:26;;;;;;;;;;;;;;;0.45;100.00;101079.06;5550421;31;1227657;-67
2022/12/01 04:09:34;;;;;;;;;;;;;;;0.44;100.00;101077.37;5589398;31;34238;-67
2022/12/01 04:12:41;;;;;;;;;;;;;;;0.45;100.00;101076.44;5589389;31;34321;-67
2022/12/01 04:15:49;;;;;;;;;;;;;;;0.42;100.00;101064.44;5589370;31;34229;-66
2022/12/01 04:18:58;;;;;;;;;;;;;;;0.39;100.00;101066.34;5589207;31;34185;-67
2022/12/01 04:22:06;;;;;;;;;;;;;;;0.40;100.00;101073.25;5589137;31;34704;-67
2022/12/01 04:25:13;;;;;;;;;;;;;;;0.37;100.00;101070.81;5575884;31;33786;-67
2022/12/01 04:28:20;;;;;;;;;;;;;;;0.28;100.00;101072.19;5589055;31;34419;-66
2022/12/01 04:31:27;;;;;;;;;;;;;;;0.22;100.00;101072.53;5589111;31;34174;-67
2022/12/01 04:34:36;;;;;;;;;;;;;;;0.14;100.00;101064.28;5588902;31;34338;-67
2022/12/01 04:37:42;;;;;;;;;;;;;;;0.11;100.00;101067.06;5588875;31;34751;-67
2022/12/01 04:40:49;;;;;;;;;;;;;;;0.07;100.00;101064.69;5589157;31;34203;-67
2022/12/01 04:43:54;;;;;;;;;;;;;;;-0.01;100.00;101065.13;5575293;31;34812;-67
2022/12/01 04:47:01;;;;;;;;;;;;;;;-0.02;100.00;101074.72;5588736;31;34058;-67
2022/12/01 04:50:07;;;;;;;;;;;;;;;-0.03;100.00;101082.62;5588604;31;33985;-67
2022/12/01 04:53:16;;;;;;;;;;;;;;;-0.04;100.00;101086.97;5575343;31;34245;-68
2022/12/01 04:56:22;;;;;;;;;;;;;;;-0.02;100.00;101092.13;5588384;31;34664;-67
2022/12/01 04:59:32;;;;;;;;;;;;;;;0.14;100.00;101103.44;5588729;31;34167;-69
2022/12/01 05:02:42;;;;;;;;;;;;;;;0.04;100.00;101104.84;5588420;31;34215;-68
2022/12/01 05:05:47;;;;;;;;;;;;;;;-0.03;100.00;101095.66;5574122;31;34478;-67
2022/12/01 05:08:56;;;;;;;;;;;;;;;-0.09;100.00;101101.19;5588037;31;34809;-68
2022/12/01 05:12:03;;;;;;;;;;;;;;;-0.15;100.00;101093.72;5590487;31;34235;-69
2022/12/01 05:15:10;;;;;;;;;;;;;;;-0.19;100.00;101085.19;5576803;31;34590;-68
2022/12/01 05:18:19;;;;;;;;;;;;;;;-0.23;100.00;101086.28;5591093;31;34836;-69
2022/12/01 05:21:28;;;;;;;;;;;;;;;-0.23;100.00;101093.28;5576427;31;34936;-68
2022/12/01 05:24:35;;;;;;;;;;;;;;;-0.26;100.00;101094.28;5590997;31;34717;-68
2022/12/01 05:27:39;;;;;;;;;;;;;;;-0.32;100.00;101097.22;5590873;31;34857;-68
2022/12/01 05:30:45;;;;;;;;;;;;;;;-0.36;100.00;101095.69;5590894;31;34352;-68
2022/12/01 05:33:52;;;;;;;;;;;;;;;-0.38;100.00;101083.66;5590898;31;34189;-70
2022/12/01 05:37:00;;;;;;;;;;;;;;;-0.45;100.00;101091.81;5590895;31;34108;-68
2022/12/01 05:40:08;;;;;;;;;;;;;;;-0.47;100.00;101098.88;5591034;31;34333;-69
2022/12/01 05:43:17;;;;;;;;;;;;;;;-0.48;100.00;101099.78;5590812;31;34405;-68
2022/12/01 05:46:34;;;;;;;;;;;;;;;-0.46;100.00;101097.94;5590770;31;34603;-68
2022/12/01 05:49:43;;;;;;;;;;;;;;;-0.51;100.00;101096.50;5576853;31;32945;-68
2022/12/01 05:52:52;;;;;;;;;;;;;;;-0.39;100.00;101095.88;5590787;31;34778;-69
2022/12/01 05:55:58;;;;;;;;;;;;;;;-0.34;100.00;101099.09;5590905;31;34331;-68
2022/12/01 05:59:04;;;;;;;;;;;;;;;-0.41;100.00;101097.72;5590607;31;34896;-68
2022/12/01 06:02:09;;;;;;;;;;;;;;;-0.45;100.00;101097.03;5590650;31;34299;-68
2022/12/01 06:05:14;;;;;;;;;;;;;;;-0.47;100.00;101096.25;5590798;31;34932;-68
2022/12/01 06:08:21;;;;;;;;;;;;;;;-0.30;100.00;101110.19;5576040;31;34397;-67
2022/12/01 06:11:27;;;;;;;;;;;;;;;-0.22;100.00;101108.00;5590461;31;33780;-68
2022/12/01 06:14:30;;;;;;;;;;;;;;;-0.28;100.00;101109.16;5563652;31;34112;-68
2022/12/01 06:17:35;;;;;;;;;;;;;;;-0.22;100.00;101116.66;5590271;31;34141;-68
2022/12/01 06:20:42;;;;;;;;;;;;;;;-0.30;100.00;101115.41;5590177;31;34877;-68
2022/12/01 06:23:46;;;;;;;;;;;;;;;-0.29;100.00;101117.09;5576016;31;33736;-69
2022/12/01 06:26:55;;;;;;;;;;;;;;;-0.26;100.00;101114.31;5590339;31;34800;-70
2022/12/01 06:30:01;;;;;;;;;;;;;;;-0.16;100.00;101112.91;5577796;31;34954;-69
2022/12/01 06:33:04;;;;;;;;;;;;;;;-0.28;100.00;101114.38;5590278;31;34143;-69
2022/12/01 06:36:09;;;;;;;;;;;;;;;-0.34;100.00;101114.72;5576078;31;34367;-70
2022/12/01 06:39:17;;;;;;;;;;;;;;;-0.40;100.00;101120.25;5590280;31;34537;-70
2022/12/01 06:42:21;;;;;;;;;;;;;;;-0.30;100.00;101116.25;5576279;31;35203;-70
2022/12/01 06:45:24;;;;;;;;;;;;;;;-0.24;100.00;101113.28;5589820;31;34848;-70
2022/12/01 06:48:27;;;;;;;;;;;;;;;0.01;100.00;101112.81;5590262;31;34166;-70
2022/12/01 06:51:32;;;;;;;;;;;;;;;-0.05;100.00;101111.37;5575723;31;33293;-70
2022/12/01 06:54:36;;;;;;;;;;;;;;;-0.08;100.00;101113.31;5589220;31;33984;-70
2022/12/01 06:57:40;;;;;;;;;;;;;;;0.04;100.00;101107.47;5589875;31;34607;-70
2022/12/01 07:00:44;;;;;;;;;;;;;;;-0.05;100.00;101121.00;5575804;31;35036;-69
2022/12/01 07:03:53;;;;;;;;;;;;;;;-0.07;100.00;101121.06;5589439;31;34202;-70
2022/12/01 07:06:56;;;;;;;;;;;;;;;0.10;100.00;101109.72;5588602;31;34106;-71
2022/12/01 07:09:59;;;;;;;;;;;;;;;0.28;100.00;101108.72;5575884;31;34131;-70
2022/12/01 07:13:04;;;;;;;;;;;;;;;0.12;100.00;101112.25;5589791;31;34260;-70
2022/12/01 07:16:08;;;;;;;;;;;;;;;0.13;100.00;101114.78;5589883;31;34826;-71
2022/12/01 07:19:12;;;;;;;;;;;;;;;0.04;100.00;101112.69;5575667;31;35376;-71
2022/12/01 07:22:15;;;;;;;;;;;;;;;0.14;100.00;101113.00;5575957;31;34965;-70
2022/12/01 07:25:20;;;;;;;;;;;;;;;0.18;100.00;101117.97;5589704;31;34789;-70
2022/12/01 07:28:26;;;;;;;;;;;;;;;0.29;100.00;101123.44;5575329;31;35631;-69
2022/12/01 07:31:29;;;;;;;;;;;;;;;0.40;100.00;101122.84;5575406;31;35009;-70
2022/12/01 07:34:33;;;;;;;;;;;;;;;0.52;100.00;101122.19;5588887;31;34753;-70
2022/12/01 07:37:37;;;;;;;;;;;;;;;0.45;100.00;101120.81;5589676;31;34157;-70
2022/12/01 07:40:40;;;;;;;;;;;;;;;0.57;100.00;101116.69;5589546;31;34237;-70
2022/12/01 07:43:45;;;;;;;;;;;;;;;0.50;100.00;101124.03;5589408;31;34777;-69
2022/12/01 07:46:49;;;;;;;;;;;;;;;0.54;100.00;101122.91;5575196;31;34627;-70
2022/12/01 07:49:53;;;;;;;;;;;;;;;0.59;100.00;101125.28;5589360;31;34090;-71
2022/12/01 07:52:57;;;;;;;;;;;;;;;0.65;100.00;101123.16;5589332;31;34386;-70
2022/12/01 07:56:03;;;;;;;;;;;;;;;0.69;100.00;101116.00;5575945;31;34105;-70
2022/12/01 07:59:11;;;;;;;;;;;;;;;0.74;100.00;101124.41;5589314;31;34024;-69
2022/12/01 08:02:15;;;;;;;;;;;;;;;0.85;100.00;101127.25;5575416;31;34201;-70
2022/12/01 08:05:21;;;;;;;;;;;;;;;0.90;100.00;101129.59;5589135;31;34280;-70
2022/12/01 08:08:24;;;;;;;;;;;;;;;1.00;100.00;101136.84;5589020;31;34491;-70
2022/12/01 08:11:31;;;;;;;;;;;;;;;1.06;100.00;101139.09;5589451;31;34603;-69
2022/12/01 08:14:35;;;;;;;;;;;;;;;1.08;100.00;101146.81;5575311;31;34459;-69
2022/12/01 08:17:40;;;;;;;;;;;;;;;1.21;100.00;101140.78;5589236;31;34194;-70
2022/12/01 08:20:43;;;;;;;;;;;;;;;1.36;100.00;101133.81;5589112;31;34842;-69
2022/12/01 08:23:46;;;;;;;;;;;;;;;1.48;100.00;101134.87;5588637;31;34730;-70
2022/12/01 08:26:50;;;;;;;;;;;;;;;1.53;100.00;101131.06;5562517;31;35570;-70
2022/12/01 08:29:53;;;;;;;;;;;;;;;1.53;100.00;101127.59;5589219;31;34136;-70
2022/12/01 08:32:57;;;;;;;;;;;;;;;1.56;100.00;101125.63;5574990;31;36783;-70
2022/12/01 08:36:02;;;;;;;;;;;;;;;1.61;100.00;101125.37;5588808;31;34544;-70
2022/12/01 08:39:06;;;;;;;;;;;;;;;1.62;100.00;101124.44;5574605;31;34910;-69
2022/12/01 08:42:09;;;;;;;;;;;;;;;1.68;100.00;101135.37;5588888;31;34239;-70
2022/12/01 08:45:13;;;;;;;;;;;;;;;1.76;100.00;101142.75;5590108;31;34254;-70
2022/12/01 08:48:16;;;;;;;;;;;;;;;1.83;100.00;101138.84;5591062;31;34816;-69
2022/12/01 08:51:21;;;;;;;;;;;;;;;1.93;100.00;101145.19;5591380;31;34883;-69
2022/12/01 08:54:24;;;;;;;;;;;;;;;2.04;100.00;101144.50;5591234;31;34753;-70
2022/12/01 08:57:30;;;;;;;;;;;;;;;2.13;100.00;101136.94;5590831;31;34132;-70
2022/12/01 09:00:36;;;;;;;;;;;;;;;2.24;100.00;101151.13;5577171;31;34359;-70
2022/12/01 09:03:41;;;;;;;;;;;;;;;2.30;100.00;101133.25;5590939;31;34617;-69
2022/12/01 09:06:45;;;;;;;;;;;;;;;2.43;100.00;101128.94;5576975;31;34268;-70
2022/12/01 09:09:49;;;;;;;;;;;;;;;2.50;100.00;101132.00;5577283;31;34571;-71
2022/12/01 09:12:53;;;;;;;;;;;;;;;2.64;100.00;101142.44;5590955;31;34166;-70
2022/12/01 09:16:01;;;;;;;;;;;;;;;2.77;100.00;101137.22;5590844;31;34283;-70
2022/12/01 09:19:05;;;;;;;;;;;;;;;2.95;100.00;101128.19;5577290;31;34310;-70
2022/12/01 09:22:08;;;;;;;;;;;;;;;2.86;100.00;101128.78;5590804;31;34795;-70
2022/12/01 09:25:13;;;;;;;;;;;;;;;2.84;100.00;101121.03;5577021;31;33398;-70
2022/12/01 09:28:16;;;;;;;;;;;;;;;2.93;100.00;101127.44;5590773;31;34151;-70
2022/12/01 09:31:22;;;;;;;;;;;;;;;3.03;100.00;101113.62;5576763;31;35584;-70
2022/12/01 09:34:26;;;;;;;;;;;;;;;3.12;100.00;101119.19;5590533;31;34910;-70
2022/12/01 09:37:29;;;;;;;;;;;;;;;3.31;100.00;101115.25;5590789;31;35007;-70
2022/12/01 09:40:34;;;;;;;;;;;;;;;3.43;100.00;101110.97;5590793;31;34767;-70
2022/12/01 09:43:46;;;;;;;;;;;;;;;3.56;100.00;101110.94;5563788;31;36084;-70
2022/12/01 09:46:53;;;;;;;;;;;;;;;3.71;100.00;101110.75;5576600;31;35546;-70
2022/12/01 09:50:05;;;;;;;;;;;;;;;3.93;100.00;101110.91;5576709;31;33936;-71
2022/12/01 09:53:10;;;;;;;;;;;;;;;4.01;100.00;101109.56;5576470;31;34214;-71
2022/12/01 09:56:18;;;;;;;;;;;;;;;4.18;100.00;101115.28;5589914;31;34421;-70
2022/12/01 09:59:23;;;;;;;;;;;;;;;4.18;100.00;101103.94;5590499;31;34561;-70
2022/12/01 10:02:34;;;;;;;;;;;;;;;4.32;100.00;101096.75;5590393;31;34809;-70
2022/12/01 10:05:45;;;;;;;;;;;;;;;4.45;100.00;101098.50;5590192;31;34830;-71
2022/12/01 10:09:11;;;;;;;;;;;;;;;4.54;100.00;101097.84;5569826;32;34252;-71
2022/12/01 10:12:14;;;;;;;;;;;;;;;4.77;100.00;101094.34;5570194;32;34087;-70
2022/12/01 10:15:28;;;;;;;;;;;;;;;4.95;99.73;101089.50;5570676;32;34218;-70
2022/12/01 10:18:50;;;;;;;;;;;;;;;5.05;96.95;101095.75;5556989;32;32946;-70
2022/12/01 10:21:52;;;;;;;;;;;;;;;5.08;98.62;101092.91;5570797;32;34629;-71
2022/12/01 10:25:04;;;;;;;;;;;;;;;5.42;92.35;101093.84;5570715;32;34753;-71
2022/12/01 10:28:07;;;;;;;;;;;;;;;5.50;91.71;101094.91;5570301;32;34727;-70
2022/12/01 10:31:33;;;;;;;;;;;;;;;5.47;92.50;101094.31;5557106;32;34293;-72
2022/12/01 10:34:38;;;;;;;;;;;;;;;5.38;91.40;101071.31;5570505;31;34058;-71
2022/12/01 10:38:01;;;;;;;;;;;;;;;5.54;91.88;101071.81;5569899;32;34875;-70
2022/12/01 10:41:05;;;;;;;;;;;;;;;5.69;89.67;101068.00;5570153;32;34207;-71
2022/12/01 10:44:08;;;;;;;;;;;;;;;5.45;89.28;101072.53;5572827;32;34729;-71
2022/12/01 10:47:17;;;;;;;;;;;;;;;5.47;89.40;101068.81;5570364;32;33986;-71
2022/12/01 10:50:27;;;;;;;;;;;;;;;5.42;88.98;101065.69;5570065;32;33772;-71
2022/12/01 10:53:32;;;;;;;;;;;;;;;5.74;88.31;101068.47;5570321;32;34943;-70
2022/12/01 10:56:38;;;;;;;;;;;;;;;6.03;86.66;101074.13;5570712;32;34206;-70
2022/12/01 10:59:47;;;;;;;;;;;;;;;6.05;84.82;101073.03;5570469;32;34166;-71
2022/12/01 11:02:53;;;;;;;;;;;;;;;6.24;83.91;101068.94;5569804;32;34085;-70
2022/12/01 11:05:58;;;;;;;;;;;;;;;6.03;84.83;101061.78;5570322;31;34212;-70
2022/12/01 11:09:14;;;;;;;;;;;;;;;6.14;84.57;101066.22;5583049;31;34643;-71
2022/12/01 11:12:18;;;;;;;;;;;;;;;5.82;85.01;101057.34;5590049;31;34772;-70
2022/12/01 11:15:24;;;;;;;;;;;;;;;5.80;84.28;101052.22;5590064;31;34712;-71
2022/12/01 11:18:33;;;;;;;;;;;;;;;6.02;84.55;101052.22;5589741;31;34477;-71
2022/12/01 11:21:44;;;;;;;;;;;;;;;6.12;83.60;101044.41;5589631;31;34883;-71
2022/12/01 11:24:51;;;;;;;;;;;;;;;6.07;83.41;101039.50;5589886;31;33889;-70
2022/12/01 11:28:00;;;;;;;;;;;;;;;6.01;83.83;101050.53;5589681;31;34697;-72
2022/12/01 11:31:06;;;;;;;;;;;;;;;5.87;83.79;101047.31;5589597;31;34753;-71
2022/12/01 11:34:23;;;;;;;;;;;;;;;5.88;83.57;101030.56;5575557;31;34356;-70
2022/12/01 11:37:31;;;;;;;;;;;;;;;5.83;84.38;101028.25;5589568;31;34286;-71
2022/12/01 11:40:43;;;;;;;;;;;;;;;5.85;85.12;101034.25;5589501;31;34840;-72
2022/12/01 11:43:45;;;;;;;;;;;;;;;5.93;85.12;101026.59;5575541;31;34235;-71
2022/12/01 11:47:16;;;;;;;;;;;;;;;6.08;83.59;101035.09;5589401;31;34806;-71
2022/12/01 11:50:28;;;;;;;;;;;;;;;6.15;82.44;101033.63;5589096;31;34791;-71
2022/12/01 11:53:39;;;;;;;;;;;;;;;6.31;81.37;101023.53;5588905;31;34794;-71
2022/12/01 11:56:42;;;;;;;;;;;;;;;6.48;81.33;101027.44;5589617;31;34215;-70
2022/12/01 11:59:46;;;;;;;;;;;;;;;6.94;79.83;101021.78;5589548;31;34368;-70
2022/12/01 12:03:08;;;;;;;;;;;;;;;7.31;75.86;101022.19;5589451;31;34806;-71
2022/12/01 12:06:11;;;;;;;;;;;;;;;6.96;76.13;101017.25;5575450;31;32666;-71
2022/12/01 12:09:40;;;;;;;;;;;;;;;6.80;77.76;101025.59;5589250;31;34860;-71
2022/12/01 12:13:05;;;;;;;;;;;;;;;7.17;75.78;101023.31;5589122;31;34183;-71
2022/12/01 12:16:15;;;;;;;;;;;;;;;7.25;74.75;101020.06;5575339;31;34086;-72
2022/12/01 12:19:18;;;;;;;;;;;;;;;7.24;74.62;101019.22;5588677;31;34157;-71
2022/12/01 12:22:53;;;;;;;;;;;;;;;7.16;74.27;101013.75;5563181;31;34260;-72
2022/12/01 12:25:57;;;;;;;;;;;;;;;7.12;74.49;101014.97;5568173;31;32624;-71
2022/12/01 12:29:16;;;;;;;;;;;;;;;6.75;74.92;101009.31;5574822;31;33148;-71
2022/12/01 12:32:25;;;;;;;;;;;;;;;6.70;76.90;101006.22;5589504;31;34620;-71
2022/12/01 12:35:41;;;;;;;;;;;;;;;6.97;74.57;101009.19;5575045;31;35470;-72
2022/12/01 12:38:51;;;;;;;;;;;;;;;7.23;73.34;101014.91;5574722;31;32729;-70
2022/12/01 12:41:55;;;;;;;;;;;;;;;7.07;74.87;101016.34;5574606;31;34173;-71
2022/12/01 12:45:05;;;;;;;;;;;;;;;7.37;72.84;101011.06;5574807;31;33964;-71
2022/12/01 12:48:10;;;;;;;;;;;;;;;7.56;71.72;101012.94;5588644;31;34195;-70
2022/12/01 12:51:18;;;;;;;;;;;;;;;7.23;72.70;101014.91;5588715;31;34606;-71
2022/12/01 12:54:27;;;;;;;;;;;;;;;7.13;74.31;101008.72;5574861;31;34811;-71
2022/12/01 12:57:43;;;;;;;;;;;;;;;6.96;74.25;101011.97;5574616;31;33567;-70
2022/12/01 13:00:52;;;;;;;;;;;;;;;6.79;74.39;101013.37;5574067;31;34408;-71
2022/12/01 13:03:55;;;;;;;;;;;;;;;6.77;78.17;101007.41;5588244;31;34449;-70
2022/12/01 13:07:03;;;;;;;;;;;;;;;6.46;77.81;101011.72;5587918;31;34283;-70
2022/12/01 13:10:15;;;;;;;;;;;;;;;6.51;77.30;101008.72;5588108;31;34351;-70
2022/12/01 13:13:17;;;;;;;;;;;;;;;6.35;78.63;101009.13;5573973;31;34622;-70
2022/12/01 13:16:24;;;;;;;;;;;;;;;6.36;79.21;101005.53;5573633;31;32758;-70
2022/12/01 13:19:32;;;;;;;;;;;;;;;6.33;77.95;101002.31;5587949;31;34732;-71
2022/12/01 13:22:36;;;;;;;;;;;;;;;6.22;79.43;100999.72;5588184;31;34079;-70
2022/12/01 13:25:39;;;;;;;;;;;;;;;6.12;79.88;100999.63;5587613;31;34933;-70
2022/12/01 13:28:46;;;;;;;;;;;;;;;6.20;79.95;100999.84;5587812;31;34230;-70
2022/12/01 13:31:50;;;;;;;;;;;;;;;6.11;80.69;101001.41;5588595;31;34634;-71
2022/12/01 13:34:54;;;;;;;;;;;;;;;6.33;80.62;100995.25;5576960;31;35599;-71
2022/12/01 13:38:17;;;;;;;;;;;;;;;6.24;78.86;100996.00;5563583;31;34195;-71
2022/12/01 13:41:22;;;;;;;;;;;;;;;6.30;79.59;101003.41;5566229;31;34138;-71
2022/12/01 13:44:28;;;;;;;;;;;;;;;6.32;78.85;101004.13;5590539;31;34247;-71
2022/12/01 13:47:38;;;;;;;;;;;;;;;6.34;79.42;101011.91;5590667;31;34279;-71
2022/12/01 13:50:42;;;;;;;;;;;;;;;6.34;79.11;101011.91;5576930;31;33600;-71
2022/12/01 13:54:24;;;;;;;;;;;;;;;6.34;79.11;101006.63;5576400;31;33079;-71
2022/12/01 13:57:29;;;;;;;;;;;;;;;6.34;78.91;101002.19;5590390;31;34879;-71
2022/12/01 14:00:33;;;;;;;;;;;;;;;6.29;79.63;101004.38;5590585;31;34752;-71
2022/12/01 14:03:39;;;;;;;;;;;;;;;6.28;79.70;100999.22;5590452;31;34822;-71
2022/12/01 14:06:48;;;;;;;;;;;;;;;6.25;79.61;101000.28;5576902;31;34130;-71
2022/12/01 14:09:54;;;;;;;;;;;;;;;6.14;80.16;101005.63;5575884;31;34564;-71
2022/12/01 14:13:02;;;;;;;;;;;;;;;6.04;81.02;101008.16;5590191;31;34242;-71
2022/12/01 14:16:07;;;;;;;;;;;;;;;5.99;81.63;100993.69;5590417;31;34112;-71
2022/12/01 14:19:25;;;;;;;;;;;;;;;5.88;82.66;100989.28;5590171;31;34792;-71
2022/12/01 14:22:31;;;;;;;;;;;;;;;5.77;83.26;100985.78;5576457;31;32827;-71
2022/12/01 14:25:36;;;;;;;;;;;;;;;5.68;83.90;100993.44;5590459;31;34653;-71
2022/12/01 14:28:55;;;;;;;;;;;;;;;5.57;85.13;100982.94;5590165;31;34283;-71
2022/12/01 14:31:58;;;;;;;;;;;;;;;5.52;85.31;100985.09;5576467;31;35138;-71
2022/12/01 14:35:03;;;;;;;;;;;;;;;5.41;86.20;100989.53;5590095;31;34865;-71
2022/12/01 14:38:09;;;;;;;;;;;;;;;5.32;86.83;100977.09;5589932;31;34326;-71
2022/12/01 14:41:23;;;;;;;;;;;;;;;5.25;87.52;100984.62;5590180;31;34313;-71
2022/12/01 14:44:32;;;;;;;;;;;;;;;5.12;87.76;100983.91;5575982;31;33456;-71
2022/12/01 14:47:46;;;;;;;;;;;;;;;4.97;89.01;100985.06;5590002;31;34272;-70
2022/12/01 14:50:52;;;;;;;;;;;;;;;4.80;91.44;100987.19;5563025;31;34998;-70
2022/12/01 14:53:56;;;;;;;;;;;;;;;4.67;93.28;100985.59;5590034;31;34352;-70
2022/12/01 14:57:00;;;;;;;;;;;;;;;4.56;94.73;100982.94;5576067;31;34252;-69
2022/12/01 15:00:14;;;;;;;;;;;;;;;4.50;95.46;100986.88;5575602;31;34165;-70
2022/12/01 15:03:18;;;;;;;;;;;;;;;4.43;96.52;100987.44;5575764;31;35022;-70
2022/12/01 15:06:24;;;;;;;;;;;;;;;4.38;97.73;100985.13;5589504;31;34512;-70
2022/12/01 15:09:28;;;;;;;;;;;;;;;4.41;98.36;100995.41;5589568;31;34707;-70
2022/12/01 15:12:37;;;;;;;;;;;;;;;4.33;98.78;100993.37;5576943;31;34185;-71
2022/12/01 15:15:49;;;;;;;;;;;;;;;4.28;98.57;100992.87;5589583;31;34665;-70
2022/12/01 15:18:53;;;;;;;;;;;;;;;4.25;99.30;100992.25;5575836;31;35162;-69
2022/12/01 15:21:58;;;;;;;;;;;;;;;4.20;99.97;100984.72;5589290;31;34830;-70
2022/12/01 15:25:04;;;;;;;;;;;;;;;4.21;99.87;100990.81;5589521;31;34689;-71
2022/12/01 15:28:12;;;;;;;;;;;;;;;4.20;99.93;100989.13;5562756;31;34308;-71
2022/12/01 15:31:18;;;;;;;;;;;;;;;4.22;99.54;100997.72;5589575;31;34735;-71
2022/12/01 15:34:26;;;;;;;;;;;;;;;4.16;99.67;100999.03;5589709;31;34629;-71
2022/12/01 15:37:40;;;;;;;;;;;;;;;4.18;99.90;100991.84;5589504;31;34186;-71
2022/12/01 15:40:45;;;;;;;;;;;;;;;4.11;99.88;100995.06;5589726;31;34190;-71
2022/12/01 15:44:19;;;;;;;;;;;;;;;4.10;100.00;100996.00;5589157;31;34111;-71
2022/12/01 15:47:34;;;;;;;;;;;;;;;4.07;100.00;100990.94;5589319;31;34610;-71
2022/12/01 15:50:42;;;;;;;;;;;;;;;4.05;100.00;100990.25;5575586;31;34395;-71
2022/12/01 15:53:52;;;;;;;;;;;;;;;4.04;100.00;100994.66;5588569;31;34121;-71
2022/12/01 15:56:57;;;;;;;;;;;;;;;4.01;100.00;100991.41;5588749;31;34813;-71
2022/12/01 16:00:02;;;;;;;;;;;;;;;3.96;100.00;100996.16;5575237;31;34203;-70
2022/12/01 16:03:14;;;;;;;;;;;;;;;3.93;100.00;100990.16;5576449;31;34638;-71
2022/12/01 16:06:21;;;;;;;;;;;;;;;3.91;100.00;100994.72;5575584;31;34251;-71
2022/12/01 16:09:28;;;;;;;;;;;;;;;3.87;100.00;100995.84;5588541;31;34849;-71